Time;durP1;ratioP1;P1;durP2;ratioP2;P2;SDS_P1;SDS_P2;PMS_P1;PMS_P2;Temp;Humidity;BMP_temperature;BMP_pressure;BME280_temperature;BME280_humidity;BME280_pressure;Samples;Min_cycle;Max_cycle;Signal;HPM_P1;HPM_P2
2022/08/31 00:04:00;;;;;;;8.73;4.50;;;;;;;24.34;49.72;100355.41;20686904;28;20037;-82
2022/08/31 00:14:05;;;;;;;7.68;4.30;;;;;;;24.35;49.71;100347.34;20679820;28;20048;-83
2022/08/31 00:24:06;;;;;;;7.30;4.20;;;;;;;24.27;50.15;100352.50;20675873;28;20046;-83
2022/08/31 00:34:08;;;;;;;7.83;4.30;;;;;;;24.16;50.46;100348.19;20696312;28;21034;-84
2022/08/31 00:44:10;;;;;;;5.75;4.30;;;;;;;24.15;50.90;100357.09;20703745;28;20722;-85
2022/08/31 00:54:13;;;;;;;5.47;4.03;;;;;;;24.06;50.72;100350.81;20667273;28;20054;-83
2022/08/31 01:04:13;;;;;;;4.82;3.72;;;;;;;24.04;50.51;100352.78;20699861;28;20037;-85
2022/08/31 01:14:14;;;;;;;5.80;3.78;;;;;;;23.97;50.11;100356.94;20711060;28;20038;-84
2022/08/31 01:24:18;;;;;;;3.95;3.45;;;;;;;23.93;50.00;100355.56;20682736;28;20452;-84
2022/08/31 01:34:19;;;;;;;4.53;3.20;;;;;;;23.88;48.80;100355.94;20692922;28;20416;-81
2022/08/31 01:44:22;;;;;;;3.75;3.33;;;;;;;23.81;48.68;100360.09;20704012;28;20042;-83
2022/08/31 01:54:24;;;;;;;4.72;3.55;;;;;;;23.75;48.73;100348.25;20681913;28;20141;-85
2022/08/31 02:04:26;;;;;;;5.97;3.55;;;;;;;23.70;49.64;100360.22;20705089;28;20030;-85
2022/08/31 02:14:27;;;;;;;7.68;3.70;;;;;;;23.63;50.00;100362.56;20705761;28;20046;-85
2022/08/31 02:24:27;;;;;;;4.03;3.63;;;;;;;23.56;50.20;100357.00;20694283;28;20202;-86
2022/08/31 02:34:28;;;;;;;5.70;3.40;;;;;;;23.52;50.35;100344.16;20679733;28;20520;-85
2022/08/31 02:44:29;;;;;;;6.38;4.15;;;;;;;23.43;51.43;100357.22;20698688;28;20037;-82
2022/08/31 02:54:30;;;;;;;8.97;4.37;;;;;;;23.41;51.53;100359.19;20653373;28;20128;-82
2022/08/31 03:04:30;;;;;;;5.35;4.00;;;;;;;23.30;51.86;100357.47;20667998;28;20057;-81
2022/08/31 03:14:31;;;;;;;9.25;4.32;;;;;;;23.27;52.14;100365.66;20635132;28;20476;-82
2022/08/31 03:24:31;;;;;;;6.40;3.83;;;;;;;23.21;52.26;100373.28;20690938;28;20042;-81
2022/08/31 03:34:34;;;;;;;6.13;3.67;;;;;;;23.18;52.16;100374.38;20687253;28;20046;-81
2022/08/31 03:44:39;;;;;;;7.00;4.20;;;;;;;23.16;52.00;100371.84;20685050;28;20069;-82
2022/08/31 03:54:39;;;;;;;8.70;4.40;;;;;;;23.12;52.35;100366.94;20696261;28;20049;-84
2022/08/31 04:04:40;;;;;;;8.80;4.20;;;;;;;23.02;52.28;100372.16;20681239;28;20053;-85
2022/08/31 04:14:41;;;;;;;9.82;4.53;;;;;;;22.89;52.34;100375.03;20687066;28;20050;-83
2022/08/31 04:24:42;;;;;;;8.05;4.50;;;;;;;22.84;52.76;100380.69;20688831;28;20048;-81
2022/08/31 04:34:42;;;;;;;9.95;4.93;;;;;;;22.75;52.66;100386.75;20659433;28;20050;-81
2022/08/31 04:44:43;;;;;;;7.88;4.70;;;;;;;22.74;52.73;100390.38;20673754;28;20127;-82
2022/08/31 04:54:44;;;;;;;11.35;4.85;;;;;;;22.66;53.35;100396.28;20654447;28;20069;-75
2022/08/31 05:04:44;;;;;;;10.93;4.80;;;;;;;22.66;53.24;100392.81;20653900;28;20061;-77
2022/08/31 05:14:46;;;;;;;10.88;4.43;;;;;;;22.86;53.39;100391.13;20668162;28;20147;-79
2022/08/31 05:24:47;;;;;;;10.00;4.60;;;;;;;22.79;53.49;100393.47;20655070;28;20501;-76
2022/08/31 05:34:47;;;;;;;8.35;4.78;;;;;;;22.66;52.89;100404.19;20672564;28;20108;-77
2022/08/31 05:44:47;;;;;;;6.85;4.30;;;;;;;22.50;53.49;100404.63;20700669;28;20033;-76
2022/08/31 05:54:48;;;;;;;14.32;6.55;;;;;;;22.52;53.49;100405.38;20738535;28;20056;-76
2022/08/31 06:04:50;;;;;;;12.65;7.28;;;;;;;22.89;52.45;100396.16;20707188;28;20108;-76
2022/08/31 06:14:52;;;;;;;13.32;6.20;;;;;;;22.82;52.22;100408.19;20709054;28;20100;-76
2022/08/31 06:24:53;;;;;;;9.00;4.40;;;;;;;22.62;52.16;100409.84;20702416;28;20129;-75
2022/08/31 06:34:53;;;;;;;12.07;6.63;;;;;;;22.62;51.76;100409.84;20656658;28;20057;-76
2022/08/31 06:44:54;;;;;;;9.63;3.92;;;;;;;22.74;50.87;100408.00;20691599;28;20484;-78
2022/08/31 06:54:55;;;;;;;7.50;3.40;;;;;;;22.93;49.84;100413.41;20664031;28;21382;-79
2022/08/31 07:04:55;;;;;;;8.32;5.55;;;;;;;23.05;50.25;100419.47;20696274;28;20044;-76
2022/08/31 07:14:56;;;;;;;7.75;4.03;;;;;;;23.25;48.90;100423.06;20659543;28;20041;-77
2022/08/31 07:24:56;;;;;;;5.65;3.70;;;;;;;23.41;48.36;100421.75;20615786;28;21336;-78
2022/08/31 07:34:57;;;;;;;6.10;3.42;;;;;;;23.53;46.65;100415.38;20603853;28;20049;-78
2022/08/31 07:44:59;;;;;;;6.60;3.17;;;;;;;23.61;45.27;100415.56;20607848;28;20049;-77
2022/08/31 07:55:06;;;;;;;7.45;2.92;;;;;;;23.74;46.81;100414.47;20619399;28;20129;-76
2022/08/31 08:05:09;;;;;;;7.72;3.08;;;;;;;23.86;46.73;100407.28;20631615;28;20048;-77
2022/08/31 08:15:10;;;;;;;7.28;2.80;;;;;;;23.99;43.88;100397.31;20709364;28;20080;-78
2022/08/31 08:25:11;;;;;;;3.58;3.05;;;;;;;24.14;43.29;100385.38;20713544;28;20124;-76
2022/08/31 08:35:12;;;;;;;5.28;2.70;;;;;;;24.20;41.75;100385.78;20717130;28;20046;-77
2022/08/31 08:45:12;;;;;;;8.20;3.10;;;;;;;24.33;41.77;100380.19;20693010;28;20149;-76
2022/08/31 08:55:17;;;;;;;5.03;2.65;;;;;;;24.44;41.69;100374.78;20712398;28;20045;-76
2022/08/31 09:05:33;;;;;;;4.75;2.30;;;;;;;24.53;40.74;100365.97;20693481;28;20045;-76
2022/08/31 09:16:03;;;;;;;9.25;2.67;;;;;;;24.61;41.52;100366.09;20646268;28;20046;-77
2022/08/31 09:26:03;;;;;;;27.35;9.05;;;;;;;24.76;41.30;100349.81;20678607;28;20131;-77
2022/08/31 09:36:14;;;;;;;13.75;5.50;;;;;;;24.90;40.42;100344.06;20726630;28;20077;-79
2022/08/31 09:46:23;;;;;;;4.27;3.23;;;;;;;24.99;40.50;100337.03;20725519;28;20113;-78
2022/08/31 09:56:24;;;;;;;5.07;2.83;;;;;;;25.12;39.17;100325.28;20717298;28;20049;-79
2022/08/31 10:06:50;;;;;;;8.87;4.37;;;;;;;25.19;40.36;100311.28;20661032;28;20049;-77
2022/08/31 10:16:59;;;;;;;6.07;3.13;;;;;;;25.35;39.28;100293.91;20707154;28;20092;-79
2022/08/31 10:27:11;;;;;;;3.10;2.70;;;;;;;25.41;40.31;100285.41;20689136;28;20456;-78
2022/08/31 10:37:30;;;;;;;3.20;2.88;;;;;;;25.49;39.93;100271.41;20705455;28;20092;-77
2022/08/31 10:47:32;;;;;;;2.60;2.38;;;;;;;25.60;39.49;100252.63;20732538;28;20060;-76
2022/08/31 10:58:04;;;;;;;4.00;2.33;;;;;;;25.66;38.80;100248.50;20732378;28;20037;-76
2022/08/31 11:08:47;;;;;;;4.10;2.45;;;;;;;25.74;38.87;100240.63;20680297;28;20041;-77
2022/08/31 11:19:29;;;;;;;5.40;2.42;;;;;;;25.89;39.60;100246.25;20684122;28;20136;-78
2022/08/31 11:29:34;;;;;;;4.63;2.30;;;;;;;26.05;40.12;100229.63;20649755;28;20374;-78
2022/08/31 11:39:37;;;;;;;5.47;2.80;;;;;;;26.08;40.92;100231.16;20663709;28;20037;-77
2022/08/31 11:49:44;;;;;;;5.60;2.67;;;;;;;26.13;40.52;100219.06;20703801;28;20502;-81
2022/08/31 11:59:46;;;;;;;5.00;2.90;;;;;;;26.24;40.15;100206.56;20631094;28;20142;-75
2022/08/31 12:10:05;;;;;;;3.45;2.60;;;;;;;26.34;39.59;100213.41;20631409;28;20049;-78
2022/08/31 12:20:14;;;;;;;5.63;3.03;;;;;;;26.45;36.98;100207.00;20668449;28;20056;-78
2022/08/31 12:30:25;;;;;;;2.83;2.53;;;;;;;26.45;38.42;100185.78;20690053;28;20056;-78
2022/08/31 12:40:28;;;;;;;4.37;2.50;;;;;;;26.52;37.47;100185.94;20703586;28;20081;-79
2022/08/31 12:50:36;;;;;;;3.38;2.42;;;;;;;26.51;37.33;100173.66;20709254;28;20046;-79
2022/08/31 13:00:38;;;;;;;6.10;2.60;;;;;;;26.60;38.39;100172.72;20688914;28;20038;-79
2022/08/31 13:10:39;;;;;;;19.02;8.25;;;;;;;26.74;41.30;100165.94;20696988;28;20041;-76
2022/08/31 13:20:45;;;;;;;27.75;9.32;;;;;;;26.79;39.62;100155.72;20709388;28;20030;-79
2022/08/31 13:30:56;;;;;;;26.13;9.93;;;;;;;26.80;39.87;100151.22;20689952;28;20555;-78
2022/08/31 13:40:57;;;;;;;56.88;16.48;;;;;;;26.82;38.75;100150.06;20685159;28;20085;-75
2022/08/31 13:51:06;;;;;;;53.70;17.42;;;;;;;26.90;39.24;100154.56;20656563;28;20128;-76
2022/08/31 14:01:38;;;;;;;12.38;4.97;;;;;;;27.00;37.77;100138.47;20690350;28;20042;-74
2022/08/31 14:11:41;;;;;;;7.68;4.07;;;;;;;27.09;35.92;100134.84;20652180;28;20053;-74
2022/08/31 14:21:42;;;;;;;5.85;3.35;;;;;;;27.07;37.80;100128.84;20697783;28;20129;-76
2022/08/31 14:31:48;;;;;;;6.88;3.38;;;;;;;27.01;38.61;100124.19;20675303;28;20045;-74
2022/08/31 14:41:50;;;;;;;8.90;3.45;;;;;;;26.98;38.71;100121.88;20659610;28;20053;-79
2022/08/31 14:51:51;;;;;;;5.18;2.88;;;;;;;26.98;39.30;100119.22;20651438;28;20061;-78
2022/08/31 15:01:51;;;;;;;10.35;3.05;;;;;;;26.98;40.63;100113.91;20663077;28;20034;-78
2022/08/31 15:11:51;;;;;;;12.33;3.50;;;;;;;26.97;40.11;100113.06;20603154;28;20057;-78
2022/08/31 15:21:52;;;;;;;10.43;3.37;;;;;;;26.96;40.38;100107.91;20671748;28;20046;-79
2022/08/31 15:31:53;;;;;;;;;;;;;;;26.84;40.98;100107.41;20715024;28;21025;-78
2022/08/31 15:41:54;;;;;;;8.20;3.30;;;;;;;26.87;40.76;100101.78;20665889;28;20036;-77
2022/08/31 15:51:55;;;;;;;6.65;3.15;;;;;;;26.85;41.22;100101.09;20656817;28;20053;-78
2022/08/31 16:01:56;;;;;;;9.23;3.33;;;;;;;26.80;41.38;100095.44;20636635;28;20152;-78
2022/08/31 16:11:58;;;;;;;5.85;2.97;;;;;;;26.77;41.82;100106.38;20654469;28;20287;-78
2022/08/31 16:22:01;;;;;;;6.30;3.03;;;;;;;26.72;41.58;100095.38;20623706;28;20044;-77
2022/08/31 16:32:03;;;;;;;6.20;3.00;;;;;;;26.67;41.91;100096.72;20664112;28;20552;-77
2022/08/31 16:42:06;;;;;;;5.85;2.80;;;;;;;26.67;42.07;100101.19;20651735;28;20658;-76
2022/08/31 16:52:11;;;;;;;3.80;3.00;;;;;;;26.64;42.47;100109.50;20647178;28;20045;-77
2022/08/31 17:02:13;;;;;;;3.70;2.60;;;;;;;26.63;42.35;100118.44;20652463;28;20050;-78
2022/08/31 17:12:16;;;;;;;5.32;3.00;;;;;;;26.61;42.21;100113.31;20651703;28;20084;-78
2022/08/31 17:22:19;;;;;;;4.43;2.95;;;;;;;26.58;42.47;100136.69;20661463;28;20048;-77
2022/08/31 17:32:23;;;;;;;3.88;2.63;;;;;;;26.55;42.68;100129.88;20661506;28;20596;-77
2022/08/31 17:42:25;;;;;;;4.43;2.58;;;;;;;26.52;42.61;100133.69;20660634;28;20413;-77
2022/08/31 17:52:26;;;;;;;4.28;2.53;;;;;;;26.51;43.05;100142.66;20656482;28;20050;-77
2022/08/31 18:02:33;;;;;;;;;;;;;;;26.47;42.83;100167.00;20659488;28;20116;-78
2022/08/31 18:12:39;;;;;;;5.18;2.28;;;;;;;26.48;43.08;100172.16;20667735;28;19976;-76
2022/08/31 18:22:40;;;;;;;6.28;2.70;;;;;;;26.49;43.28;100170.34;20610548;28;20629;-78
2022/08/31 18:32:40;;;;;;;4.78;2.50;;;;;;;26.45;44.08;100191.06;20605790;28;20053;-77
2022/08/31 18:53:03;;;;;;;11.30;4.55;;;;;;;26.39;43.07;100205.00;20592033;28;20050;-78
2022/08/31 19:03:03;;;;;;;9.95;4.20;;;;;;;26.40;42.24;100203.97;20600768;28;20042;-77
2022/08/31 19:13:04;;;;;;;8.68;2.92;;;;;;;26.43;40.66;100216.94;20589473;28;20491;-76
2022/08/31 19:23:04;;;;;;;6.47;2.50;;;;;;;26.32;37.43;100219.88;20681462;28;20389;-76
2022/08/31 19:33:10;;;;;;;3.25;2.10;;;;;;;26.24;36.61;100225.13;20689981;28;20065;-76
2022/08/31 19:43:11;;;;;;;7.25;2.17;;;;;;;26.15;36.73;100227.72;20709094;28;20045;-76
2022/08/31 19:53:12;;;;;;;7.27;2.03;;;;;;;26.01;35.99;100234.41;20656071;28;20723;-76
2022/08/31 20:03:12;;;;;;;2.72;1.80;;;;;;;26.08;37.14;100241.78;20658490;28;20050;-73
2022/08/31 20:13:13;;;;;;;3.47;2.00;;;;;;;26.10;37.93;100232.66;20679637;28;20074;-74
2022/08/31 20:23:15;;;;;;;2.28;1.90;;;;;;;26.10;38.67;100235.31;20671847;28;21049;-74
2022/08/31 20:33:15;;;;;;;2.90;1.73;;;;;;;26.10;39.36;100237.13;20644261;28;20042;-74
2022/08/31 20:43:16;;;;;;;5.00;2.08;;;;;;;26.10;39.77;100231.81;20668667;28;20038;-74
2022/08/31 20:53:18;;;;;;;2.00;1.80;;;;;;;26.11;39.72;100236.16;20681735;28;20137;-74
2022/08/31 21:03:18;;;;;;;2.28;2.00;;;;;;;26.11;40.60;100244.09;20695422;28;20048;-74
2022/08/31 21:13:19;;;;;;;2.17;1.73;;;;;;;26.10;40.57;100248.59;20709801;28;20037;-74
2022/08/31 21:23:19;;;;;;;3.80;2.00;;;;;;;26.10;41.20;100251.25;20677051;28;20038;-74
2022/08/31 21:33:20;;;;;;;3.05;2.00;;;;;;;26.10;41.17;100263.66;20690514;28;20129;-73
2022/08/31 21:43:20;;;;;;;2.88;2.00;;;;;;;26.09;41.50;100254.88;20693751;28;20030;-74
2022/08/31 21:53:24;;;;;;;2.45;2.10;;;;;;;26.09;41.84;100246.09;20682235;28;20045;-74
2022/08/31 22:03:26;;;;;;;3.03;1.80;;;;;;;26.09;42.21;100238.13;20680775;28;20044;-75
2022/08/31 22:13:26;;;;;;;1.60;1.50;;;;;;;26.08;42.46;100242.59;20690825;28;20109;-75
2022/08/31 22:23:27;;;;;;;2.05;1.77;;;;;;;26.07;42.42;100240.94;20666676;28;20120;-75
2022/08/31 22:33:28;;;;;;;1.60;1.50;;;;;;;26.07;42.62;100256.84;20690393;28;20046;-73
2022/08/31 22:43:28;;;;;;;1.80;1.60;;;;;;;26.07;43.01;100256.84;20703492;28;20044;-73
2022/08/31 22:53:28;;;;;;;1.85;1.70;;;;;;;26.06;43.05;100271.06;20671946;28;20054;-74
2022/08/31 23:03:29;;;;;;;5.15;1.60;;;;;;;26.05;42.75;100283.50;20665377;28;20132;-76
2022/08/31 23:13:50;;;;;;;4.47;1.27;;;;;;;25.87;38.96;100288.00;20676285;28;20092;-74
2022/08/31 23:23:51;;;;;;;1.73;1.27;;;;;;;25.67;39.76;100301.41;20630301;28;20148;-75
2022/08/31 23:33:53;;;;;;;3.75;1.40;;;;;;;25.45;41.77;100304.50;20669394;28;20043;-75
2022/08/31 23:43:55;;;;;;;;;;;;;;;25.29;44.77;100311.22;20657817;28;20049;-74
2022/08/31 23:53:59;;;;;;;1.50;1.40;;;;;;;25.12;45.81;100328.78;20669465;28;21192;-73
